Time;durP1;ratioP1;P1;durP2;ratioP2;P2;SDS_P1;SDS_P2;PMS_P1;PMS_P2;Temp;Humidity;BMP_temperature;BMP_pressure;BME280_temperature;BME280_humidity;BME280_pressure;Samples;Min_cycle;Max_cycle;Signal;HPM_P1;HPM_P2
2021/11/13 00:00:21;;;;;;;15.57;13.97;;;;;21.80;100048.00;;;;2077898;28;20737;-53
2021/11/13 00:01:21;;;;;;;15.13;13.55;;;;;21.80;100046.00;;;;2078357;28;20456;-51
2021/11/13 00:02:21;;;;;;;16.70;15.00;;;;;21.80;100046.00;;;;2078347;28;20213;-50
2021/11/13 00:03:22;;;;;;;14.63;13.10;;;;;21.80;100041.00;;;;2077871;28;20304;-50
2021/11/13 00:04:22;;;;;;;14.80;13.30;;;;;21.80;100040.00;;;;2077315;28;20617;-51
2021/11/13 00:05:24;;;;;;;16.00;13.60;;;;;21.80;100049.00;;;;2078928;28;20635;-51
2021/11/13 00:06:24;;;;;;;15.10;13.40;;;;;21.80;100053.00;;;;2079048;28;20210;-50
2021/11/13 00:07:24;;;;;;;14.63;13.13;;;;;21.70;100054.00;;;;2078848;28;20256;-50
2021/11/13 00:08:25;;;;;;;13.77;12.37;;;;;21.70;100048.00;;;;2077830;28;20208;-51
2021/11/13 00:09:25;;;;;;;15.07;13.67;;;;;21.70;100055.00;;;;2077285;28;20232;-51
2021/11/13 00:10:27;;;;;;;14.17;12.67;;;;;21.70;100047.00;;;;2078847;28;20643;-51
2021/11/13 00:11:27;;;;;;;13.40;12.13;;;;;21.70;100052.00;;;;2078761;28;20226;-50
2021/11/13 00:12:27;;;;;;;13.87;12.47;;;;;21.70;100049.00;;;;2078878;28;20216;-50
2021/11/13 00:13:28;;;;;;;13.87;12.47;;;;;21.70;100053.00;;;;2078884;28;20221;-49
2021/11/13 00:14:29;;;;;;;12.80;11.50;;;;;21.70;100049.00;;;;2078907;28;20214;-51
2021/11/13 00:15:29;;;;;;;13.23;12.02;;;;;21.70;100048.00;;;;2078788;28;20217;-51
2021/11/13 00:16:33;;;;;;;13.23;11.80;;;;;21.70;100054.00;;;;2078931;28;20686;-49
2021/11/13 00:17:33;;;;;;;13.40;12.18;;;;;21.70;100047.00;;;;2078661;28;20210;-50
2021/11/13 00:18:35;;;;;;;13.57;12.27;;;;;21.70;100053.00;;;;2078647;28;20590;-49
2021/11/13 00:19:35;;;;;;;12.48;11.27;;;;;21.70;100052.00;;;;2072608;28;20273;-50
2021/11/13 00:20:36;;;;;;;12.87;11.53;;;;;21.70;100058.00;;;;2071277;28;20764;-50
2021/11/13 00:21:36;;;;;;;12.47;11.17;;;;;21.70;100056.00;;;;2071150;28;20572;-50
2021/11/13 00:22:37;;;;;;;12.40;11.20;;;;;21.70;100049.00;;;;2069356;28;20252;-50
2021/11/13 00:23:37;;;;;;;11.63;10.53;;;;;21.70;100053.00;;;;2070435;28;20296;-50
2021/11/13 00:24:37;;;;;;;13.40;11.60;;;;;21.70;100054.00;;;;2074634;28;20373;-50
2021/11/13 00:25:38;;;;;;;11.13;10.10;;;;;21.60;100044.00;;;;2073393;28;20229;-51
2021/11/13 00:26:38;;;;;;;11.40;10.20;;;;;21.60;100043.00;;;;2073124;28;20222;-51
2021/11/13 00:27:39;;;;;;;12.20;11.00;;;;;21.60;100045.00;;;;2070620;28;20246;-50
2021/11/13 00:28:39;;;;;;;10.90;9.90;;;;;21.60;100054.00;;;;2070548;28;20273;-49
2021/11/13 00:29:39;;;;;;;11.80;10.63;;;;;21.60;100044.00;;;;2069396;28;20925;-50
2021/11/13 00:30:41;;;;;;;11.60;10.60;;;;;21.60;100044.00;;;;2070350;28;20707;-51
2021/11/13 00:31:42;;;;;;;11.57;10.40;;;;;21.60;100044.00;;;;2070282;28;20277;-51
2021/11/13 00:32:42;;;;;;;11.60;10.60;;;;;21.60;100045.00;;;;2070590;28;20214;-51
2021/11/13 00:33:42;;;;;;;10.50;9.50;;;;;21.60;100029.00;;;;2070366;28;20758;-50
2021/11/13 00:34:43;;;;;;;11.20;10.10;;;;;21.60;100034.00;;;;2070575;28;20225;-51
2021/11/13 00:35:43;;;;;;;11.53;10.33;;;;;21.60;100031.00;;;;2070391;28;20276;-50
2021/11/13 00:36:43;;;;;;;10.93;9.87;;;;;21.60;100035.00;;;;2070341;28;20240;-51
2021/11/13 00:37:44;;;;;;;12.27;11.17;;;;;21.60;100034.00;;;;2070500;28;20683;-51
2021/11/13 00:38:44;;;;;;;10.20;9.20;;;;;21.60;100034.00;;;;2069500;28;20614;-51
2021/11/13 00:39:44;;;;;;;11.13;10.13;;;;;21.60;100027.00;;;;2070165;28;20231;-51
2021/11/13 00:40:45;;;;;;;12.47;10.80;;;;;21.60;100033.00;;;;2077042;28;20221;-50
2021/11/13 00:41:45;;;;;;;10.00;9.10;;;;;21.50;100031.00;;;;2071517;28;20571;-50
2021/11/13 00:42:47;;;;;;;10.37;9.43;;;;;21.60;100033.00;;;;2070489;28;20228;-49
2021/11/13 00:43:48;;;;;;;10.35;9.35;;;;;21.50;100029.00;;;;2073723;28;20225;-51
2021/11/13 00:44:48;;;;;;;9.53;8.63;;;;;21.60;100032.00;;;;2070535;28;20221;-50
2021/11/13 00:45:49;;;;;;;9.83;8.83;;;;;21.60;100032.00;;;;2070462;28;20221;-51
2021/11/13 00:46:49;;;;;;;10.03;9.10;;;;;21.60;100025.00;;;;2070380;28;20237;-50
2021/11/13 00:47:50;;;;;;;10.20;9.20;;;;;21.60;100029.00;;;;2063681;28;20213;-50
2021/11/13 00:48:50;;;;;;;9.53;8.53;;;;;21.50;100033.00;;;;2076613;28;20221;-51
2021/11/13 00:49:50;;;;;;;9.57;8.67;;;;;21.50;100035.00;;;;2074633;28;20260;-51
2021/11/13 00:50:51;;;;;;;9.17;8.30;;;;;21.50;100033.00;;;;2070246;28;20352;-51
2021/11/13 00:51:51;;;;;;;10.00;9.10;;;;;21.50;100023.00;;;;2070400;28;20674;-50
2021/11/13 00:52:52;;;;;;;9.77;8.87;;;;;21.50;100030.00;;;;2070138;28;20210;-50
2021/11/13 00:53:52;;;;;;;9.10;8.20;;;;;21.50;100028.00;;;;2069788;28;20721;-50
2021/11/13 00:54:52;;;;;;;9.83;8.90;;;;;21.50;100028.00;;;;2070096;28;20342;-51
2021/11/13 00:55:53;;;;;;;10.00;9.00;;;;;21.50;100024.00;;;;2069769;28;20301;-51
2021/11/13 00:56:53;;;;;;;10.07;9.17;;;;;21.50;100035.00;;;;2069886;28;20218;-50
2021/11/13 00:57:53;;;;;;;10.13;9.23;;;;;21.50;99946.00;;;;2070115;28;20222;-50
2021/11/13 00:58:54;;;;;;;9.03;8.23;;;;;21.50;100029.00;;;;2070195;28;20695;-49
2021/11/13 00:59:54;;;;;;;9.60;8.77;;;;;21.50;100026.00;;;;2070904;28;20214;-49
2021/11/13 01:00:54;;;;;;;8.83;7.93;;;;;21.50;100031.00;;;;2067717;28;20209;-51
2021/11/13 01:01:55;;;;;;;9.60;8.80;;;;;21.50;100021.00;;;;2077655;28;20312;-49
2021/11/13 01:02:55;;;;;;;9.40;8.50;;;;;21.50;100035.00;;;;2069966;28;20214;-50
2021/11/13 01:03:57;;;;;;;9.77;8.87;;;;;21.50;100029.00;;;;2069709;28;20222;-49
2021/11/13 01:04:57;;;;;;;10.15;9.15;;;;;21.50;100026.00;;;;2070211;28;20214;-49
2021/11/13 01:05:58;;;;;;;9.17;8.37;;;;;21.30;100030.00;;;;2069312;28;20331;-52
2021/11/13 01:06:58;;;;;;;8.80;8.00;;;;;21.50;100035.00;;;;2069990;28;20224;-53
2021/11/13 01:07:58;;;;;;;9.40;8.50;;;;;21.40;100030.00;;;;2070249;28;20218;-51
2021/11/13 01:08:59;;;;;;;8.73;7.93;;;;;21.50;100021.00;;;;2069020;28;20222;-52
2021/11/13 01:09:59;;;;;;;8.00;7.30;;;;;21.50;100028.00;;;;2069561;28;20216;-51
2021/11/13 01:11:00;;;;;;;9.43;8.53;;;;;21.50;100024.00;;;;2069527;28;20215;-48
2021/11/13 01:12:00;;;;;;;8.63;7.83;;;;;21.50;100017.00;;;;2070154;28;20234;-49
2021/11/13 01:13:00;;;;;;;8.20;7.53;;;;;21.40;100024.00;;;;2060168;28;20742;-51
2021/11/13 01:14:01;;;;;;;9.10;8.30;;;;;21.50;100008.00;;;;2071140;28;21914;-50
2021/11/13 01:15:01;;;;;;;8.40;7.63;;;;;21.40;100011.00;;;;2077826;28;20221;-51
2021/11/13 01:16:02;;;;;;;8.57;7.67;;;;;21.50;100012.00;;;;2074531;28;20221;-51
2021/11/13 01:17:02;;;;;;;8.40;7.60;;;;;21.50;100011.00;;;;2072939;28;20214;-49
2021/11/13 01:18:03;;;;;;;8.77;7.97;;;;;21.40;100006.00;;;;2071887;28;20289;-50
2021/11/13 01:19:03;;;;;;;8.23;7.53;;;;;21.40;100012.00;;;;2070792;28;20224;-51
2021/11/13 01:20:08;;;;;;;8.07;7.30;;;;;21.40;100005.00;;;;2071178;28;20222;-51
2021/11/13 01:21:08;;;;;;;9.05;7.70;;;;;21.40;100005.00;;;;2072027;28;20317;-49
2021/11/13 01:22:08;;;;;;;8.50;7.80;;;;;21.40;99998.00;;;;2072038;28;20973;-50
2021/11/13 01:23:09;;;;;;;9.60;8.30;;;;;21.40;100003.00;;;;2072049;28;20214;-51
2021/11/13 01:24:09;;;;;;;8.13;7.33;;;;;21.40;99993.00;;;;2071997;28;20581;-50
2021/11/13 01:25:09;;;;;;;7.70;7.00;;;;;21.40;100000.00;;;;2071977;28;20210;-51
2021/11/13 01:26:10;;;;;;;8.60;7.90;;;;;21.40;99988.00;;;;2071890;28;20210;-51
2021/11/13 01:27:10;;;;;;;8.93;8.13;;;;;21.40;99995.00;;;;2072046;28;20313;-49
2021/11/13 01:28:11;;;;;;;8.33;7.53;;;;;21.40;99988.00;;;;2071853;28;20237;-51
2021/11/13 01:29:11;;;;;;;8.90;8.10;;;;;21.40;99989.00;;;;2070433;28;20221;-50
2021/11/13 01:30:13;;;;;;;8.03;7.30;;;;;21.40;99984.00;;;;2071535;28;20856;-51
2021/11/13 01:31:15;;;;;;;8.32;7.63;;;;;21.40;99977.00;;;;2071556;28;20321;-50
2021/11/13 01:32:16;;;;;;;7.70;7.00;;;;;21.40;99984.00;;;;2071838;28;20210;-50
2021/11/13 01:33:16;;;;;;;8.18;7.47;;;;;21.40;99980.00;;;;2071988;28;20210;-50
2021/11/13 01:34:16;;;;;;;8.07;7.37;;;;;21.40;99975.00;;;;2076287;28;20213;-49
2021/11/13 01:35:17;;;;;;;8.40;7.60;;;;;21.40;99978.00;;;;2079910;28;20665;-50
2021/11/13 01:36:17;;;;;;;7.20;6.60;;;;;21.40;99976.00;;;;2080103;28;20311;-51
2021/11/13 01:37:18;;;;;;;7.77;7.07;;;;;21.40;99978.00;;;;2079273;28;20459;-50
2021/11/13 01:38:18;;;;;;;8.67;7.87;;;;;21.30;99975.00;;;;2076841;28;20268;-51
2021/11/13 01:39:19;;;;;;;7.57;6.97;;;;;21.30;99965.00;;;;2078902;28;20218;-50
2021/11/13 01:40:21;;;;;;;7.30;6.70;;;;;21.30;99961.00;;;;2079999;28;20570;-50
2021/11/13 01:41:22;;;;;;;7.45;6.85;;;;;21.30;99962.00;;;;2079839;28;20292;-51
2021/11/13 01:42:25;;;;;;;7.60;6.90;;;;;21.30;99960.00;;;;2079970;28;20202;-51
2021/11/13 01:43:26;;;;;;;8.05;7.25;;;;;21.30;99966.00;;;;2079857;28;20256;-51
2021/11/13 01:44:26;;;;;;;8.80;6.90;;;;;21.30;99959.00;;;;2076962;28;20217;-51
2021/11/13 01:45:26;;;;;;;7.93;7.20;;;;;21.30;99954.00;;;;2073627;28;20232;-51
2021/11/13 01:46:27;;;;;;;7.17;6.57;;;;;21.30;99978.00;;;;2075528;28;20225;-51
2021/11/13 01:47:27;;;;;;;7.37;6.67;;;;;21.30;99948.00;;;;2071847;28;20625;-51
2021/11/13 01:48:29;;;;;;;7.57;6.87;;;;;21.30;99950.00;;;;2071887;28;20252;-50
2021/11/13 01:49:29;;;;;;;6.85;6.25;;;;;21.30;99944.00;;;;2070371;28;20289;-50
2021/11/13 01:50:40;;;;;;;7.97;7.27;;;;;21.30;99944.00;;;;2071724;28;20210;-51
2021/11/13 01:51:45;;;;;;;7.43;6.78;;;;;21.30;99948.00;;;;2071051;28;20210;-51
2021/11/13 01:52:45;;;;;;;7.55;6.90;;;;;21.30;99938.00;;;;2071820;28;20860;-50
2021/11/13 01:53:47;;;;;;;7.70;7.00;;;;;21.30;99943.00;;;;2071102;28;20313;-49
2021/11/13 01:54:47;;;;;;;7.38;6.78;;;;;21.30;99939.00;;;;2069476;28;20226;-48
2021/11/13 01:55:48;;;;;;;8.20;6.63;;;;;21.30;99943.00;;;;2071691;28;20567;-51
2021/11/13 01:56:51;;;;;;;8.80;8.00;;;;;21.30;99933.00;;;;2070747;28;20296;-50
2021/11/13 01:57:51;;;;;;;8.00;7.28;;;;;21.20;99934.00;;;;2071184;28;20221;-51
2021/11/13 01:58:53;;;;;;;6.67;6.07;;;;;21.30;99929.00;;;;2069872;28;20214;-49
2021/11/13 01:59:53;;;;;;;7.85;7.15;;;;;21.30;99932.00;;;;2070795;28;20333;-49
2021/11/13 02:00:54;;;;;;;7.53;6.83;;;;;21.20;99928.00;;;;2070897;28;20225;-50
2021/11/13 02:01:54;;;;;;;7.00;6.30;;;;;21.30;99935.00;;;;2071447;28;20210;-50
2021/11/13 02:02:55;;;;;;;7.83;6.70;;;;;21.30;99926.00;;;;2071235;28;20214;-51
2021/11/13 02:03:56;;;;;;;7.00;6.40;;;;;21.20;99928.00;;;;2070675;28;20300;-50
2021/11/13 02:04:57;;;;;;;7.50;6.80;;;;;21.20;99930.00;;;;2070915;28;20640;-50
2021/11/13 02:05:57;;;;;;;7.57;6.87;;;;;21.20;99921.00;;;;2070784;28;20222;-50
2021/11/13 02:06:57;;;;;;;8.00;7.30;;;;;21.20;99921.00;;;;2070724;28;20228;-49
2021/11/13 02:07:58;;;;;;;7.40;6.70;;;;;21.20;99933.00;;;;2062742;28;20237;-50
2021/11/13 02:08:58;;;;;;;7.47;6.87;;;;;21.20;99934.00;;;;2069801;28;20619;-50
2021/11/13 02:09:58;;;;;;;8.10;6.87;;;;;21.20;99925.00;;;;2071238;28;20594;-50
2021/11/13 02:10:59;;;;;;;7.00;6.40;;;;;21.30;99921.00;;;;2071532;28;20222;-50
2021/11/13 02:11:59;;;;;;;7.00;6.30;;;;;21.20;99929.00;;;;2071094;28;20355;-50
2021/11/13 02:12:59;;;;;;;7.53;6.83;;;;;21.20;99928.00;;;;2070967;28;20210;-50
2021/11/13 02:14:02;;;;;;;6.90;6.20;;;;;21.20;99920.00;;;;2073680;28;20262;-49
2021/11/13 02:15:03;;;;;;;7.45;6.75;;;;;21.20;99926.00;;;;2074203;28;20252;-50
2021/11/13 02:16:04;;;;;;;7.80;7.10;;;;;21.20;99925.00;;;;2073234;28;20211;-51
2021/11/13 02:17:04;;;;;;;7.00;6.40;;;;;21.20;99921.00;;;;2071197;28;20757;-50
2021/11/13 02:18:05;;;;;;;7.00;6.40;;;;;21.20;99919.00;;;;2071605;28;20214;-50
2021/11/13 02:19:06;;;;;;;6.60;6.00;;;;;21.20;99923.00;;;;2070213;28;20225;-49
2021/11/13 02:20:36;;;;;;;6.30;5.72;;;;;21.20;99913.00;;;;2071352;28;20722;-50
2021/11/13 02:21:36;;;;;;;6.15;5.65;;;;;21.10;99909.00;;;;2059710;28;20237;-50
2021/11/13 02:22:36;;;;;;;7.00;6.30;;;;;21.20;99913.00;;;;2071571;28;20333;-49
2021/11/13 02:23:37;;;;;;;7.17;6.40;;;;;21.20;99901.00;;;;2078541;28;20220;-50
2021/11/13 02:24:38;;;;;;;6.83;6.17;;;;;21.20;99910.00;;;;2079815;28;20694;-49
2021/11/13 02:25:38;;;;;;;7.03;6.37;;;;;21.10;99902.00;;;;2079446;28;20229;-50
2021/11/13 02:26:39;;;;;;;7.07;6.10;;;;;21.20;99899.00;;;;2079170;28;20226;-51
2021/11/13 02:27:39;;;;;;;6.43;5.93;;;;;21.10;99899.00;;;;2079163;28;20448;-56
2021/11/13 02:28:40;;;;;;;7.83;5.77;;;;;21.20;99899.00;;;;2079532;28;20232;-55
2021/11/13 02:29:40;;;;;;;7.20;6.60;;;;;21.10;99896.00;;;;2078423;28;20209;-52
2021/11/13 02:30:40;;;;;;;7.03;6.43;;;;;21.10;99896.00;;;;2079220;28;20209;-50
2021/11/13 02:31:42;;;;;;;6.60;6.00;;;;;21.10;99889.00;;;;2078944;28;20217;-50
2021/11/13 02:32:43;;;;;;;6.15;5.60;;;;;21.10;99883.00;;;;2079127;28;20309;-49
2021/11/13 02:33:43;;;;;;;6.90;6.30;;;;;21.10;99887.00;;;;2079013;28;20220;-50
2021/11/13 02:34:44;;;;;;;7.90;7.00;;;;;21.10;99884.00;;;;2079177;28;20456;-51
2021/11/13 02:35:44;;;;;;;6.00;5.50;;;;;21.10;99889.00;;;;2079673;28;20220;-51
2021/11/13 02:36:44;;;;;;;7.80;6.43;;;;;21.10;99890.00;;;;2079595;28;20614;-51
2021/11/13 02:37:45;;;;;;;7.30;5.90;;;;;21.10;99883.00;;;;2079638;28;20621;-48
2021/11/13 02:38:45;;;;;;;6.63;6.03;;;;;21.00;99880.00;;;;2078704;28;20231;-49
2021/11/13 02:39:46;;;;;;;6.60;6.00;;;;;21.10;99884.00;;;;2070278;28;20761;-49
2021/11/13 02:40:48;;;;;;;6.53;5.93;;;;;21.10;99879.00;;;;2070674;28;20360;-50
2021/11/13 02:41:49;;;;;;;6.60;6.00;;;;;21.10;99888.00;;;;2078750;28;20224;-49
2021/11/13 02:42:50;;;;;;;6.83;6.13;;;;;21.10;99875.00;;;;2079672;28;20218;-50
2021/11/13 02:43:50;;;;;;;6.53;5.83;;;;;21.20;99893.00;;;;2078474;28;20483;-51
2021/11/13 02:44:50;;;;;;;6.93;6.30;;;;;21.10;99880.00;;;;2073763;28;20301;-51
2021/11/13 02:45:55;;;;;;;6.67;6.07;;;;;21.10;99887.00;;;;2073596;28;20216;-49
2021/11/13 02:46:56;;;;;;;6.65;6.13;;;;;21.10;99889.00;;;;2077983;28;20236;-50
2021/11/13 02:47:56;;;;;;;6.90;6.27;;;;;21.10;99885.00;;;;2079393;28;20304;-50
2021/11/13 02:48:56;;;;;;;7.10;6.50;;;;;21.10;99886.00;;;;2077358;28;20210;-50
2021/11/13 02:49:57;;;;;;;6.60;6.00;;;;;21.10;99894.00;;;;2070418;28;20222;-50
2021/11/13 02:50:57;;;;;;;7.67;6.50;;;;;21.10;99888.00;;;;2078786;28;20218;-49
2021/11/13 02:51:57;;;;;;;6.40;5.80;;;;;21.00;99892.00;;;;2079595;28;20732;-51
2021/11/13 02:52:59;;;;;;;7.80;7.13;;;;;21.00;99887.00;;;;2079388;28;20301;-50
2021/11/13 02:53:59;;;;;;;6.90;6.20;;;;;21.10;99884.00;;;;2079518;28;20217;-50
2021/11/13 02:54:59;;;;;;;6.77;6.17;;;;;21.10;99902.00;;;;2079506;28;20234;-50
2021/11/13 02:56:01;;;;;;;6.70;6.10;;;;;21.10;99897.00;;;;2079561;28;20340;-50
2021/11/13 02:57:02;;;;;;;7.13;6.53;;;;;21.10;99895.00;;;;2075850;28;20209;-50
2021/11/13 02:58:02;;;;;;;6.13;5.63;;;;;21.10;99891.00;;;;2078676;28;20694;-51
2021/11/13 02:59:02;;;;;;;7.20;6.50;;;;;21.10;99895.00;;;;2077347;28;20221;-51
2021/11/13 03:00:03;;;;;;;7.23;6.53;;;;;21.00;99899.00;;;;2079227;28;20253;-51
2021/11/13 03:01:06;;;;;;;7.27;6.23;;;;;21.00;99895.00;;;;2079429;28;20217;-49
2021/11/13 03:02:06;;;;;;;6.55;5.95;;;;;21.00;99893.00;;;;2078317;28;20216;-50
2021/11/13 03:03:06;;;;;;;6.90;6.30;;;;;21.00;99893.00;;;;2079455;28;20240;-51
2021/11/13 03:04:07;;;;;;;7.47;6.67;;;;;21.00;99900.00;;;;2079043;28;20568;-50
2021/11/13 03:05:31;;;;;;;7.90;7.10;;;;;21.00;99899.00;;;;2079392;28;20597;-50
2021/11/13 03:06:32;;;;;;;6.47;5.82;;;;;21.00;99895.00;;;;2074094;28;20216;-49
2021/11/13 03:07:32;;;;;;;6.20;5.70;;;;;21.00;99901.00;;;;2079447;28;20216;-49
2021/11/13 03:08:33;;;;;;;7.10;6.40;;;;;21.00;99895.00;;;;2079499;28;20245;-51
2021/11/13 03:09:34;;;;;;;6.03;5.53;;;;;21.00;99900.00;;;;2077916;28;20205;-51
2021/11/13 03:10:35;;;;;;;7.50;6.10;;;;;21.00;99890.00;;;;2079441;28;20229;-51
2021/11/13 03:11:36;;;;;;;6.93;6.22;;;;;21.00;99895.00;;;;2079188;28;20271;-49
2021/11/13 03:12:36;;;;;;;6.47;5.87;;;;;21.00;99903.00;;;;2079442;28;20319;-50
2021/11/13 03:13:37;;;;;;;6.70;6.10;;;;;21.00;99905.00;;;;2078687;28;20214;-51
2021/11/13 03:14:38;;;;;;;6.78;6.07;;;;;21.00;99907.00;;;;2073925;28;20222;-51
2021/11/13 03:15:38;;;;;;;6.33;5.73;;;;;21.00;99903.00;;;;2073065;28;20227;-50
2021/11/13 03:16:38;;;;;;;6.20;5.60;;;;;21.00;99909.00;;;;2072748;28;20313;-51
2021/11/13 03:17:39;;;;;;;6.03;5.53;;;;;21.00;99909.00;;;;2071105;28;20225;-51
2021/11/13 03:18:39;;;;;;;7.23;6.43;;;;;21.00;99910.00;;;;2071038;28;20225;-49
2021/11/13 03:19:40;;;;;;;7.20;6.50;;;;;21.00;99909.00;;;;2069225;28;20301;-51
2021/11/13 03:20:40;;;;;;;6.43;5.93;;;;;21.00;99911.00;;;;2070425;28;20218;-49
2021/11/13 03:21:41;;;;;;;7.10;6.50;;;;;21.00;99910.00;;;;2070861;28;20218;-50
2021/11/13 03:22:41;;;;;;;6.80;6.20;;;;;21.00;99897.00;;;;2070987;28;20603;-51
2021/11/13 03:23:45;;;;;;;6.97;6.37;;;;;21.00;99906.00;;;;2074676;28;20469;-51
2021/11/13 03:24:45;;;;;;;7.68;6.78;;;;;21.00;99904.00;;;;2072993;28;20234;-51
2021/11/13 03:25:52;;;;;;;7.27;6.60;;;;;21.00;99904.00;;;;2072272;28;20221;-50
2021/11/13 03:26:52;;;;;;;6.70;6.00;;;;;21.00;99910.00;;;;2070400;28;20213;-49
2021/11/13 03:27:54;;;;;;;6.80;6.20;;;;;21.00;99904.00;;;;2070459;28;20296;-51
2021/11/13 03:28:57;;;;;;;6.63;5.97;;;;;21.00;99905.00;;;;2061487;28;20397;-50
2021/11/13 03:29:58;;;;;;;6.93;6.15;;;;;21.00;99900.00;;;;2059000;28;20329;-50
2021/11/13 03:31:02;;;;;;;7.03;6.43;;;;;21.00;99898.00;;;;2057119;28;20219;-50
2021/11/13 03:32:03;;;;;;;7.30;6.65;;;;;21.00;99904.00;;;;2073347;28;20202;-49
2021/11/13 03:33:03;;;;;;;6.75;6.15;;;;;21.00;99895.00;;;;2073555;28;20289;-51
2021/11/13 03:34:04;;;;;;;7.07;6.47;;;;;21.00;99901.00;;;;2073017;28;20210;-51
2021/11/13 03:35:05;;;;;;;6.57;6.00;;;;;21.00;99903.00;;;;2071503;28;20229;-50
2021/11/13 03:36:05;;;;;;;7.15;6.45;;;;;21.00;99896.00;;;;2070955;28;20302;-50
2021/11/13 03:37:06;;;;;;;6.53;5.93;;;;;20.90;99905.00;;;;2071190;28;20321;-51
2021/11/13 03:38:12;;;;;;;7.10;6.40;;;;;20.90;99897.00;;;;2070511;28;20233;-51
2021/11/13 03:39:12;;;;;;;6.55;5.78;;;;;20.90;99894.00;;;;2068941;28;20226;-50
2021/11/13 03:40:13;;;;;;;7.27;6.57;;;;;21.00;99894.00;;;;2070851;28;20300;-50
2021/11/13 03:41:13;;;;;;;6.43;5.87;;;;;20.90;99896.00;;;;2074165;28;20218;-50
2021/11/13 03:42:13;;;;;;;7.70;5.93;;;;;20.90;99893.00;;;;2078482;28;20213;-50
2021/11/13 03:43:14;;;;;;;6.93;6.33;;;;;21.00;99894.00;;;;2077973;28;20218;-49
2021/11/13 03:44:14;;;;;;;7.00;6.40;;;;;20.90;99841.00;;;;2078889;28;20253;-50
2021/11/13 03:45:14;;;;;;;6.67;6.07;;;;;20.90;99893.00;;;;2078736;28;20817;-51
2021/11/13 03:46:15;;;;;;;7.20;6.50;;;;;20.90;99894.00;;;;2078304;28;20229;-49
2021/11/13 03:47:16;;;;;;;8.47;6.87;;;;;20.90;99896.00;;;;2078068;28;20961;-50
2021/11/13 03:48:16;;;;;;;6.70;6.13;;;;;20.90;99886.00;;;;2078778;28;20217;-50
2021/11/13 03:49:16;;;;;;;6.90;6.30;;;;;20.90;99886.00;;;;2077239;28;20213;-51
2021/11/13 03:50:17;;;;;;;6.40;5.77;;;;;20.90;99891.00;;;;2078656;28;20217;-50
2021/11/13 03:51:18;;;;;;;7.17;6.47;;;;;21.00;99889.00;;;;2077932;28;20215;-50
2021/11/13 03:52:18;;;;;;;7.20;6.50;;;;;21.00;99899.00;;;;2077487;28;20221;-51
2021/11/13 03:53:18;;;;;;;7.60;6.80;;;;;20.90;99887.00;;;;2078377;28;20461;-50
2021/11/13 03:54:19;;;;;;;6.33;5.73;;;;;20.90;99889.00;;;;2078482;28;20243;-50
2021/11/13 03:55:19;;;;;;;7.03;6.33;;;;;20.90;99889.00;;;;2078222;28;20213;-50
2021/11/13 03:56:20;;;;;;;7.13;6.43;;;;;20.90;99885.00;;;;2078401;28;20240;-50
2021/11/13 03:57:21;;;;;;;7.68;6.93;;;;;20.90;99889.00;;;;2077986;28;20460;-51
2021/11/13 03:58:21;;;;;;;7.47;6.63;;;;;20.90;99891.00;;;;2078191;28;20213;-51
2021/11/13 03:59:23;;;;;;;6.70;6.10;;;;;20.90;99890.00;;;;2077035;28;20221;-50
2021/11/13 04:00:24;;;;;;;6.50;5.90;;;;;20.90;99894.00;;;;2078038;28;20214;-52
2021/11/13 04:01:24;;;;;;;6.90;6.30;;;;;20.90;99891.00;;;;2077526;28;20244;-51
2021/11/13 04:02:24;;;;;;;6.70;6.10;;;;;20.90;99892.00;;;;2072811;28;20453;-50
2021/11/13 04:03:25;;;;;;;6.67;6.07;;;;;20.90;99895.00;;;;2072936;28;20210;-51
2021/11/13 04:04:25;;;;;;;7.40;6.70;;;;;20.90;99891.00;;;;2072209;28;20205;-50
2021/11/13 04:05:25;;;;;;;6.83;6.23;;;;;20.90;99841.00;;;;2070633;28;20723;-50
2021/11/13 04:06:26;;;;;;;6.67;6.07;;;;;20.90;99878.00;;;;2070140;28;20698;-50
2021/11/13 04:07:26;;;;;;;7.37;6.67;;;;;20.80;99890.00;;;;2070679;28;20206;-50
2021/11/13 04:08:26;;;;;;;7.50;6.90;;;;;20.90;99877.00;;;;2070105;28;20248;-50
2021/11/13 04:09:27;;;;;;;7.97;7.03;;;;;20.90;99883.00;;;;2073243;28;20221;-50
2021/11/13 04:10:27;;;;;;;8.13;6.40;;;;;20.90;99884.00;;;;2078591;28;20722;-50
2021/11/13 04:11:27;;;;;;;7.23;6.53;;;;;20.90;99886.00;;;;2077655;28;20823;-48
2021/11/13 04:12:28;;;;;;;6.07;5.47;;;;;20.90;99890.00;;;;2078465;28;20214;-49
2021/11/13 04:13:28;;;;;;;6.60;6.10;;;;;20.90;99891.00;;;;2078608;28;20224;-51
2021/11/13 04:14:29;;;;;;;7.00;6.40;;;;;20.90;99881.00;;;;2078343;28;20210;-51
2021/11/13 04:15:29;;;;;;;6.90;6.30;;;;;20.90;99887.00;;;;2078438;28;20225;-50
2021/11/13 04:16:29;;;;;;;6.40;5.87;;;;;20.90;99886.00;;;;2076840;28;20271;-51
2021/11/13 04:17:30;;;;;;;6.50;6.00;;;;;20.90;99890.00;;;;2078116;28;20210;-50
2021/11/13 04:18:30;;;;;;;6.70;6.10;;;;;20.90;99895.00;;;;2077725;28;20260;-49
2021/11/13 04:19:30;;;;;;;7.10;6.40;;;;;20.90;99891.00;;;;2068755;28;20214;-50
2021/11/13 04:20:31;;;;;;;7.23;6.63;;;;;20.90;99885.00;;;;2069863;28;20206;-51
2021/11/13 04:21:31;;;;;;;6.47;5.80;;;;;20.90;99886.00;;;;2070197;28;20267;-51
2021/11/13 04:22:31;;;;;;;7.07;6.47;;;;;20.90;99891.00;;;;2061453;28;20705;-50
2021/11/13 04:23:33;;;;;;;8.00;6.60;;;;;20.90;99882.00;;;;2077803;28;20209;-51
2021/11/13 04:24:34;;;;;;;7.50;6.80;;;;;20.90;99910.00;;;;2077048;28;20225;-51
2021/11/13 04:25:34;;;;;;;7.30;6.70;;;;;20.80;99884.00;;;;2070501;28;20214;-50
2021/11/13 04:26:34;;;;;;;8.17;6.13;;;;;20.80;99878.00;;;;2070722;28;20214;-50
2021/11/13 04:27:35;;;;;;;8.40;6.47;;;;;20.90;99882.00;;;;2070000;28;20206;-51
2021/11/13 04:28:35;;;;;;;6.63;6.03;;;;;20.80;99879.00;;;;2070456;28;20245;-51
2021/11/13 04:29:36;;;;;;;6.90;6.30;;;;;20.80;99873.00;;;;2069330;28;20233;-50
2021/11/13 04:30:36;;;;;;;6.93;6.33;;;;;20.80;99892.00;;;;2070158;28;20202;-51
2021/11/13 04:31:36;;;;;;;6.93;6.23;;;;;20.80;99886.00;;;;2072212;28;20210;-51
2021/11/13 04:32:38;;;;;;;6.40;5.83;;;;;20.80;99879.00;;;;2073380;28;20274;-50
2021/11/13 04:33:38;;;;;;;7.25;6.45;;;;;20.90;99887.00;;;;2073119;28;20210;-50
2021/11/13 04:35:14;;;;;;;7.23;6.53;;;;;20.80;99886.00;;;;2072791;28;20222;-48
2021/11/13 04:36:29;;;;;;;6.47;5.88;;;;;20.80;99886.00;;;;2075436;28;20225;-48
2021/11/13 04:37:29;;;;;;;6.53;5.97;;;;;20.80;99884.00;;;;2070685;28;20213;-51
2021/11/13 04:38:30;;;;;;;6.70;6.10;;;;;20.80;99886.00;;;;2070493;28;20218;-50
2021/11/13 04:39:30;;;;;;;6.63;6.00;;;;;20.80;99878.00;;;;2068354;28;20245;-51
2021/11/13 04:40:33;;;;;;;7.30;6.60;;;;;20.80;99884.00;;;;2070563;28;20199;-51
2021/11/13 04:41:34;;;;;;;6.18;5.60;;;;;20.80;99878.00;;;;2070483;28;20206;-50
2021/11/13 04:42:34;;;;;;;6.65;6.05;;;;;20.90;99891.00;;;;2069705;28;20251;-51
2021/11/13 04:43:35;;;;;;;7.50;6.80;;;;;20.90;99878.00;;;;2070014;28;20210;-51
2021/11/13 04:44:35;;;;;;;6.47;5.80;;;;;20.80;99883.00;;;;2070726;28;20207;-50
2021/11/13 04:45:35;;;;;;;6.30;5.70;;;;;20.80;99879.00;;;;2070532;28;20658;-50
2021/11/13 04:46:36;;;;;;;6.57;5.90;;;;;20.80;99880.00;;;;2070358;28;20217;-50
2021/11/13 04:47:36;;;;;;;7.00;6.23;;;;;20.80;99885.00;;;;2070574;28;20203;-50
2021/11/13 04:48:37;;;;;;;6.03;5.53;;;;;20.80;99887.00;;;;2070725;28;20309;-51
2021/11/13 04:49:37;;;;;;;6.80;6.20;;;;;20.80;99888.00;;;;2069276;28;20226;-49
2021/11/13 04:50:38;;;;;;;6.17;5.67;;;;;20.80;99885.00;;;;2070770;28;20210;-50
2021/11/13 04:51:38;;;;;;;6.70;6.20;;;;;20.80;99882.00;;;;2070650;28;20305;-50
2021/11/13 04:52:38;;;;;;;6.80;6.20;;;;;20.80;99886.00;;;;2070126;28;20226;-51
2021/11/13 04:53:39;;;;;;;6.60;6.00;;;;;20.80;99891.00;;;;2070450;28;20231;-50
2021/11/13 04:54:39;;;;;;;7.53;6.63;;;;;20.80;99886.00;;;;2070570;28;20226;-49
2021/11/13 04:55:39;;;;;;;7.30;6.60;;;;;20.80;99896.00;;;;2070548;28;20215;-49
2021/11/13 04:56:40;;;;;;;7.40;6.70;;;;;20.80;99893.00;;;;2070557;28;20214;-51
2021/11/13 04:57:40;;;;;;;7.40;6.73;;;;;20.80;99899.00;;;;2061830;28;20222;-51
2021/11/13 04:58:41;;;;;;;6.00;5.50;;;;;20.80;99891.00;;;;2077567;28;20222;-50
2021/11/13 04:59:42;;;;;;;6.83;6.23;;;;;20.80;99891.00;;;;2076057;28;20206;-50
2021/11/13 05:00:42;;;;;;;7.05;6.35;;;;;20.80;99890.00;;;;2070458;28;20221;-51
2021/11/13 05:01:43;;;;;;;7.00;6.40;;;;;20.80;99894.00;;;;2069848;28;20206;-51
2021/11/13 05:02:43;;;;;;;7.20;6.50;;;;;20.80;99891.00;;;;2069695;28;20297;-50